Airfield :
LOGIN :

Register | Disclaimer

   EN    FR    IT 

 










Legend :    VFR   Marginal VFR   IFR   Intensive IFR   Very Intensive IFR
Visi :
Ceiling :
>= 8 km
>= 3000ft
5 to 8 km
1000 to 3000 ft
1500m to 5 km
500 to 1000 ft
800 to 1500m
200 to 500 ft
< 800m
< 200 ft
Symbols :   Thunderstorms  Fog  Heavy snow  Heavy precipitations  Wind > 20 kt
SIGMETs :     Misc.  Thunderstorms  Icing  Turbulence  Mountain Waves  Volcanic Ashes






- Airport Elevation : 359 ft
- IATA code : BVA


LFOB - Beauvais

CURRENT METAR :
  • 031300Z AUTO 25011KT 9999 FEW031/// SCT045/// ///CB 20/12 Q1013 TEMPO 3000 SHRA

EXPIRED METARs :
  • 031230Z AUTO 28009KT 9999 FEW023/// SCT037/// BKN045/// ///CB 19/14 Q1013 TEMPO 3000 SHRA
  • 031200Z AUTO 30008KT 280V350 9999 FEW020/// SCT032/// BKN043/// ///CB 19/15 Q1013 TEMPO 3000 SHRA
  • 031130Z AUTO 30004KT 230V010 9999 FEW020/// SCT060/// ///CB 19/13 Q1013 TEMPO 3000 SHRA
  • 031100Z AUTO 27006KT 240V300 9999 FEW016/// BKN058/// BKN068/// ///CB 18/14 Q1014 TEMPO 3000 SHRA BKN040
  • 031030Z AUTO 30009KT 9999 -RADZ FEW021/// SCT033/// BKN047/// ///TCU 17/15 Q1014 TEMPO 3000 SHRA BKN040

TAF AMD TAF LFOB
Valid from the 03 at 12:00 until the 04 at 12:00 UTC


031208Z 0312/0412 30007KT 9999 BKN040
TEMPO 0312/0321 3000 SHRA BKN015CB
BECMG 0321/0324 BKN007
TEMPO 0400/0406 1500 BR OVC004
BECMG 0408/0410 BKN025
ATIS : +33 3 44 11 49 28



MET'MAP, your aeronautical weather chart ! - Copyright ORBIFLY December 2007 - Disclaimer

ORBIFLY MET'MAP TEAM :

Programming & Development : Alexandra Zaïnal
Concept & original design : Baudouin d'Aumeries
Assistance for programming : Marc-Olivier Méhu
Technical & hardware support : Manuel Goepfert

Contact : metmap@orbifly.com




SOURCES & CREDITS :

   NOAA